Aviation Digital Data Service (ADDS)

Output produced by METARs form (1407 UTC 19 April 2015)
found at http://aviationweather.gov/adds/metars/
 
KMGW 191126Z 1912/2012 06007KT P6SM BKN100 WS020/14030KT 
     FM191500 12012G22KT P6SM BKN150 
     FM200200 13012G22KT 5SM -SHRA OVC035 
     FM200800 14011KT P6SM BKN025